createdAt,value
2022-10-19T00:01:06.421Z,98805.41
2022-10-19T00:03:35.175Z,98802.81
2022-10-19T00:06:12.028Z,98795.81
2022-10-19T00:08:39.713Z,98794.06
2022-10-19T00:11:07.305Z,98798.47
2022-10-19T00:13:34.472Z,98802.81
2022-10-19T00:16:01.665Z,98790.59
2022-10-19T00:18:29.011Z,98786.25
2022-10-19T00:21:04.339Z,98780.94
2022-10-19T00:23:31.927Z,98780.94
2022-10-19T00:25:59.666Z,98766.97
2022-10-19T00:28:27.396Z,98760.81
2022-10-19T00:30:54.684Z,98757.31
2022-10-19T00:33:22.656Z,98745.09
2022-10-19T00:35:51.703Z,98741.56
2022-10-19T00:38:20.888Z,98758.16
2022-10-19T00:40:49.029Z,98755.53
2022-10-19T00:43:19.052Z,98726.75
2022-10-19T00:45:46.278Z,98741.59
2022-10-19T00:48:17.782Z,98753.81
2022-10-19T00:50:46.648Z,98738.97
2022-10-19T00:53:13.766Z,98747.72
2022-10-19T00:55:41.585Z,98736.34
2022-10-19T00:58:09.661Z,98747.72
2022-10-19T01:00:36.889Z,98739.88
2022-10-19T01:03:04.994Z,98738.13
2022-10-19T01:05:35.110Z,98719.84
2022-10-19T01:08:02.430Z,98732.88
2022-10-19T01:11:01.613Z,98744.28
2022-10-19T01:14:08.725Z,98755.66
2022-10-19T01:17:00.685Z,98744.28
2022-10-19T01:19:52.432Z,98741.69
2022-10-19T01:23:00.200Z,98733.88
2022-10-19T01:25:53.215Z,98738.19
2022-10-19T01:28:29.661Z,98741.69
2022-10-19T01:31:08.807Z,98739.94
2022-10-19T01:33:47.494Z,98737.31
2022-10-19T01:36:25.658Z,98739.97
2022-10-19T01:39:08.904Z,98673.78
2022-10-19T01:41:43.793Z,98661.56
2022-10-19T01:44:53.633Z,98732.03
2022-10-19T01:47:43.273Z,98714.59
2022-10-19T01:50:24.950Z,98667.50
2022-10-19T01:52:53.815Z,98703.13
2022-10-19T01:55:23.063Z,98680.47
2022-10-19T01:57:57.055Z,98597.66
2022-10-19T02:00:26.084Z,98669.88
2022-10-19T02:02:54.836Z,98650.66
2022-10-19T02:05:28.171Z,98636.75
2022-10-19T02:07:59.832Z,98671.50
2022-10-19T02:10:28.959Z,98620.97
2022-10-19T02:12:56.764Z,98664.47
2022-10-19T02:15:48.343Z,98620.94
2022-10-19T02:18:19.975Z,98627.91
2022-10-19T02:20:47.257Z,98639.22
2022-10-19T02:23:18.787Z,98636.63
2022-10-19T02:25:45.887Z,98560.13
2022-10-19T02:28:13.778Z,98643.72
2022-10-19T02:30:42.560Z,98604.56
2022-10-19T02:33:09.840Z,98624.63
2022-10-19T02:35:37.018Z,98649.81
2022-10-19T02:38:05.985Z,98621.03
2022-10-19T02:40:38.357Z,98609.72
2022-10-19T02:43:11.010Z,98621.03
2022-10-19T02:45:44.781Z,98580.94
2022-10-19T02:48:18.990Z,98633.22
2022-10-19T02:50:49.792Z,98580.19
2022-10-19T02:53:17.315Z,98628.00
2022-10-19T02:55:59.421Z,98514.91
2022-10-19T02:58:50.702Z,98553.19
2022-10-19T03:01:18.765Z,98621.03
2022-10-19T03:06:54.348Z,98510.50
2022-10-19T03:09:49.144Z,98598.38
2022-10-19T03:12:16.299Z,98580.94
2022-10-19T03:14:43.952Z,98599.22
2022-10-19T03:17:12.210Z,98540.06
2022-10-19T03:19:40.202Z,98584.41
2022-10-19T03:22:07.621Z,98547.88
2022-10-19T03:24:34.758Z,98594.78
2022-10-19T03:27:02.845Z,98566.97
2022-10-19T03:29:30.448Z,98556.56
2022-10-19T03:31:58.133Z,98551.38
2022-10-19T03:34:25.202Z,98576.72
2022-10-19T03:36:52.366Z,98533.34
2022-10-19T03:39:19.776Z,98581.13
2022-10-19T03:41:47.148Z,98582.03
2022-10-19T03:44:14.469Z,98466.31
2022-10-19T03:46:45.487Z,98546.34
2022-10-19T03:49:16.073Z,98448.94
2022-10-19T03:51:43.856Z,98535.94
2022-10-19T03:54:16.459Z,98549.88
2022-10-19T03:56:44.077Z,98549.88
2022-10-19T03:59:15.170Z,98517.69
2022-10-19T04:01:45.138Z,98521.19
2022-10-19T04:04:18.266Z,98549.00
2022-10-19T04:06:47.976Z,98537.69
2022-10-19T04:09:18.214Z,98525.53
2022-10-19T04:11:45.409Z,98535.94
2022-10-19T04:14:22.687Z,98530.69
2022-10-19T04:16:59.726Z,98455.97
2022-10-19T04:19:27.028Z,98540.31
2022-10-19T04:21:54.364Z,98500.28
2022-10-19T04:24:21.881Z,98504.66
2022-10-19T04:26:55.531Z,98508.16
2022-10-19T04:29:27.888Z,98510.75
2022-10-19T04:31:57.493Z,98449.78
2022-10-19T04:34:25.015Z,98494.09
2022-10-19T04:36:53.423Z,98479.28
2022-10-19T04:39:20.585Z,98478.41
2022-10-19T04:41:48.245Z,98518.44
2022-10-19T04:44:15.776Z,98521.09
2022-10-19T04:46:43.312Z,98517.59
2022-10-19T04:49:10.340Z,98516.72
2022-10-19T04:51:37.285Z,98483.63
2022-10-19T04:54:04.813Z,98524.56
2022-10-19T04:56:33.381Z,98509.75
2022-10-19T04:59:01.517Z,98508.09
2022-10-19T05:01:30.647Z,98504.66
2022-10-19T05:04:00.678Z,98491.63
2022-10-19T05:06:28.875Z,98466.38
2022-10-19T05:08:56.186Z,98502.97
2022-10-19T05:11:49.071Z,98519.41
2022-10-19T05:14:16.894Z,98511.59
2022-10-19T05:16:44.103Z,98504.56
2022-10-19T05:19:14.629Z,98495.84
2022-10-19T05:21:41.756Z,98497.59
2022-10-19T05:24:12.373Z,98480.19
2022-10-19T05:26:39.965Z,98496.66
2022-10-19T05:29:11.235Z,98493.16
2022-10-19T05:31:41.519Z,98493.97
2022-10-19T05:36:40.963Z,98501.88
2022-10-19T05:39:18.705Z,98487.13
2022-10-19T05:41:50.033Z,98476.72
2022-10-19T05:44:20.138Z,98495.00
2022-10-19T05:46:48.133Z,98468.94
2022-10-19T05:49:17.471Z,98503.69
2022-10-19T05:51:45.050Z,98469.69
2022-10-19T05:54:12.938Z,98487.06
2022-10-19T05:56:41.074Z,98455.72
2022-10-19T05:59:15.036Z,98492.31
2022-10-19T06:01:41.976Z,98483.56
2022-10-19T06:04:18.395Z,98487.06
2022-10-19T06:06:46.107Z,98464.47
2022-10-19T06:09:13.372Z,98474.88
2022-10-19T06:11:41.913Z,98467.00
2022-10-19T06:14:13.197Z,98448.75
2022-10-19T06:16:40.304Z,98478.28
2022-10-19T06:19:07.394Z,98444.41
2022-10-19T06:21:34.850Z,98464.38
2022-10-19T06:24:04.970Z,98466.13
2022-10-19T06:26:33.389Z,98479.19
2022-10-19T06:29:01.239Z,98474.78
2022-10-19T06:31:33.436Z,98466.09
2022-10-19T06:34:00.737Z,98466.91
2022-10-19T06:36:30.145Z,98455.63
2022-10-19T06:38:57.636Z,98413.94
2022-10-19T06:41:24.582Z,98422.63
2022-10-19T06:43:54.237Z,98453.00
2022-10-19T06:46:23.698Z,98430.41
2022-10-19T06:48:58.573Z,98472.97
2022-10-19T06:51:27.517Z,98419.91
2022-10-19T06:53:57.105Z,98465.94
2022-10-19T06:56:26.086Z,98470.28
2022-10-19T06:58:54.704Z,98462.44
2022-10-19T07:01:22.725Z,98437.25
2022-10-19T07:03:52.025Z,98389.38
2022-10-19T07:06:20.114Z,98438.00
2022-10-19T07:08:47.560Z,98409.38
2022-10-19T07:11:19.748Z,98438.84
2022-10-19T07:13:47.063Z,98438.72
2022-10-19T07:16:21.269Z,98415.25
2022-10-19T07:18:51.613Z,98385.69
2022-10-19T07:21:19.964Z,98405.69
2022-10-19T07:23:47.757Z,98411.78
2022-10-19T07:26:23.445Z,98446.50
2022-10-19T07:28:51.544Z,98394.28
2022-10-19T07:31:22.350Z,98436.00
2022-10-19T07:33:57.190Z,98381.19
2022-10-19T07:36:24.888Z,98436.81
2022-10-19T07:38:52.737Z,98430.66
2022-10-19T07:41:22.046Z,98401.00
2022-10-19T07:43:49.966Z,98382.88
2022-10-19T07:46:25.609Z,98375.91
2022-10-19T07:48:53.896Z,98378.53
2022-10-19T07:51:22.753Z,98434.19
2022-10-19T07:53:49.957Z,98386.41
2022-10-19T07:56:22.866Z,98412.44
2022-10-19T07:58:51.729Z,98405.56
2022-10-19T08:01:24.383Z,98444.72
2022-10-19T08:06:42.793Z,98405.59
2022-10-19T08:09:15.573Z,98425.59
2022-10-19T08:11:49.981Z,98442.03
2022-10-19T08:14:16.932Z,98409.88
2022-10-19T08:16:44.800Z,98442.06
2022-10-19T08:19:14.050Z,98430.69
2022-10-19T08:21:43.896Z,98434.22
2022-10-19T08:24:12.790Z,98397.69
2022-10-19T08:26:41.015Z,98442.06
2022-10-19T08:29:12.498Z,98428.16
2022-10-19T08:31:40.080Z,98436.88
2022-10-19T08:34:07.144Z,98436.00
2022-10-19T08:36:35.839Z,98432.50
2022-10-19T08:39:05.985Z,98423.84
2022-10-19T08:41:51.517Z,98439.56
2022-10-19T08:44:40.368Z,98438.72
2022-10-19T08:47:12.340Z,98429.13
2022-10-19T08:49:41.799Z,98430.06
2022-10-19T08:52:34.584Z,98432.59
2022-10-19T08:55:15.245Z,98435.28
2022-10-19T08:58:10.655Z,98425.66
2022-10-19T09:01:17.214Z,98406.56
2022-10-19T09:03:55.439Z,98423.13
2022-10-19T09:06:29.512Z,98417.06
2022-10-19T09:08:58.388Z,98396.25
2022-10-19T09:11:30.253Z,98395.34
2022-10-19T09:14:28.662Z,98395.31
2022-10-19T09:17:02.653Z,98418.78
2022-10-19T09:19:32.158Z,98397.97
2022-10-19T09:22:07.787Z,98428.34
2022-10-19T09:24:51.936Z,98412.69
2022-10-19T09:27:30.711Z,98422.25
2022-10-19T09:30:01.523Z,98437.91
2022-10-19T09:32:37.478Z,98446.63
2022-10-19T09:35:28.446Z,98430.06
2022-10-19T09:37:56.585Z,98402.31
2022-10-19T09:40:27.127Z,98400.59
2022-10-19T09:42:58.703Z,98430.16
2022-10-19T09:45:32.626Z,98404.06
2022-10-19T09:48:08.607Z,98441.44
2022-10-19T09:50:44.690Z,98417.88
2022-10-19T09:53:20.969Z,98370.00
2022-10-19T09:55:57.417Z,98421.38
2022-10-19T09:58:30.467Z,98385.69
2022-10-19T10:01:01.418Z,98437.91
2022-10-19T10:03:32.208Z,98437.03
2022-10-19T10:06:04.123Z,98438.81
2022-10-19T10:08:58.050Z,98423.13
2022-10-19T10:11:28.999Z,98441.34
2022-10-19T10:13:58.417Z,98417.84
2022-10-19T10:16:30.612Z,98436.03
2022-10-19T10:19:03.249Z,98432.50
2022-10-19T10:21:34.853Z,98430.75
2022-10-19T10:24:06.008Z,98439.53
2022-10-19T10:26:40.457Z,98434.28
2022-10-19T10:29:24.995Z,98428.25
2022-10-19T10:32:14.488Z,98417.84
2022-10-19T10:35:00.011Z,98450.00
2022-10-19T10:37:31.507Z,98447.44
2022-10-19T10:40:01.932Z,98443.97
2022-10-19T10:42:44.015Z,98416.16
2022-10-19T10:45:26.660Z,98444.84
2022-10-19T10:47:54.413Z,98419.56
2022-10-19T10:50:28.206Z,98425.63
2022-10-19T10:53:04.783Z,98431.69
2022-10-19T10:55:32.678Z,98397.72
2022-10-19T10:58:26.780Z,98436.00
2022-10-19T11:00:57.273Z,98398.63
2022-10-19T11:03:29.199Z,98449.16
2022-10-19T11:06:01.188Z,98444.84
2022-10-19T11:08:47.644Z,98444.97
2022-10-19T11:11:20.719Z,98377.22
2022-10-19T11:13:57.021Z,98433.78
2022-10-19T11:16:29.168Z,98446.84
2022-10-19T11:19:23.463Z,98447.75
2022-10-19T11:21:56.508Z,98443.44
2022-10-19T11:24:27.096Z,98437.38
2022-10-19T11:27:24.425Z,98442.66
2022-10-19T11:30:23.760Z,98434.75
2022-10-19T11:32:56.707Z,98433.88
2022-10-19T11:35:36.050Z,98432.03
2022-10-19T11:38:29.628Z,98430.28
2022-10-19T11:41:19.367Z,98434.69
2022-10-19T11:43:53.882Z,98405.19
2022-10-19T11:46:38.943Z,98433.00
2022-10-19T11:49:34.261Z,98438.19
2022-10-19T11:52:20.994Z,98435.56
2022-10-19T11:54:53.953Z,98431.22
2022-10-19T11:57:30.968Z,98429.44
2022-10-19T12:00:27.218Z,98420.72
2022-10-19T12:03:21.504Z,98384.22
2022-10-19T12:06:01.126Z,98413.72
2022-10-19T12:09:02.508Z,98406.72
2022-10-19T12:11:57.124Z,98419.78
2022-10-19T12:14:30.393Z,98409.38
2022-10-19T12:17:02.672Z,98399.81
2022-10-19T12:19:36.743Z,98392.81
2022-10-19T12:22:06.567Z,98425.91
2022-10-19T12:24:34.622Z,98415.50
2022-10-19T12:27:02.329Z,98432.03
2022-10-19T12:29:34.314Z,98430.22
2022-10-19T12:32:03.146Z,98430.28
2022-10-19T12:34:33.411Z,98438.94
2022-10-19T12:37:24.375Z,98441.59
2022-10-19T12:40:00.845Z,98445.94
2022-10-19T12:42:52.074Z,98439.84
2022-10-19T12:45:24.045Z,98439.88
2022-10-19T12:48:12.457Z,98446.78
2022-10-19T12:50:48.738Z,98458.16
2022-10-19T12:53:38.129Z,98459.00
2022-10-19T12:56:07.343Z,98454.66
2022-10-19T12:58:50.321Z,98455.53
2022-10-19T13:01:42.815Z,98454.72
2022-10-19T13:04:31.496Z,98447.75
2022-10-19T13:06:59.313Z,98462.56
2022-10-19T13:09:44.142Z,98456.44
2022-10-19T13:12:17.764Z,98463.44
2022-10-19T13:14:58.679Z,98446.97
2022-10-19T13:17:36.653Z,98460.84
2022-10-19T13:20:15.910Z,98458.16
2022-10-19T13:23:13.984Z,98460.78
2022-10-19T13:25:42.246Z,98440.78
2022-10-19T13:28:09.405Z,98466.91
2022-10-19T13:30:39.171Z,98467.75
2022-10-19T13:33:24.961Z,98469.50
2022-10-19T13:36:04.644Z,98468.66
2022-10-19T13:38:50.686Z,98473.91
2022-10-19T13:41:21.866Z,98413.88
2022-10-19T13:44:12.303Z,98467.81
2022-10-19T13:46:39.139Z,98473.03
2022-10-19T13:49:15.461Z,98480.91
2022-10-19T13:52:11.041Z,98480.00
2022-10-19T13:55:05.591Z,98486.16
2022-10-19T13:57:50.156Z,98474.78
2022-10-19T14:00:24.225Z,98486.97
2022-10-19T14:03:11.568Z,98463.47
2022-10-19T14:05:48.340Z,98479.97
2022-10-19T14:08:53.000Z,98486.09
2022-10-19T14:11:34.058Z,98492.22
2022-10-19T14:14:21.267Z,98485.25
2022-10-19T14:17:04.145Z,98455.66
2022-10-19T14:19:43.770Z,98489.59
2022-10-19T14:22:37.077Z,98484.38
2022-10-19T14:25:18.144Z,98496.56
2022-10-19T14:28:01.172Z,98485.28
2022-10-19T14:30:32.407Z,98473.03
2022-10-19T14:33:02.401Z,98484.34
2022-10-19T14:35:32.215Z,98489.59
2022-10-19T14:38:00.283Z,98471.34
2022-10-19T14:40:32.804Z,98474.88
2022-10-19T14:43:01.512Z,98497.47
2022-10-19T14:45:31.286Z,98493.13
2022-10-19T14:47:59.927Z,98497.47
2022-10-19T14:50:47.730Z,98504.44
2022-10-19T14:53:42.250Z,98507.97
2022-10-19T14:56:20.300Z,98498.44
2022-10-19T14:58:53.517Z,98512.38
2022-10-19T15:01:21.390Z,98509.75
2022-10-19T15:03:50.039Z,98513.25
2022-10-19T15:06:24.155Z,98486.31
2022-10-19T15:08:58.117Z,98508.09
2022-10-19T15:11:46.975Z,98494.19
2022-10-19T15:14:26.667Z,98488.09
2022-10-19T15:17:00.690Z,98515.06
2022-10-19T15:19:30.394Z,98525.53
2022-10-19T15:22:09.539Z,98530.78
2022-10-19T15:24:36.997Z,98526.44
2022-10-19T15:27:19.008Z,98533.41
2022-10-19T15:29:56.645Z,98532.50
2022-10-19T15:32:28.389Z,98528.16
2022-10-19T15:34:55.713Z,98537.75
2022-10-19T15:37:24.049Z,98527.28
2022-10-19T15:39:52.839Z,98495.97
2022-10-19T15:42:44.764Z,98535.97
2022-10-19T15:45:30.276Z,98548.22
2022-10-19T15:48:23.936Z,98539.47
2022-10-19T15:50:54.848Z,98535.19
2022-10-19T15:53:22.588Z,98549.97
2022-10-19T15:55:50.001Z,98543.03
2022-10-19T15:58:18.067Z,98523.91
2022-10-19T16:00:45.023Z,98553.47
2022-10-19T16:03:12.405Z,98555.25
2022-10-19T16:05:39.604Z,98562.22
2022-10-19T16:08:10.100Z,98515.19
2022-10-19T16:10:39.518Z,98567.44
2022-10-19T16:13:06.525Z,98530.00
2022-10-19T16:15:34.371Z,98571.81
2022-10-19T16:18:01.999Z,98573.56
2022-10-19T16:20:30.309Z,98574.44
2022-10-19T16:22:58.473Z,98561.31
2022-10-19T16:25:26.071Z,98572.69
2022-10-19T16:27:53.172Z,98546.56
2022-10-19T16:30:20.454Z,98569.22
2022-10-19T16:32:49.157Z,98570.97
2022-10-19T16:35:16.264Z,98548.34
2022-10-19T16:37:43.343Z,98575.31
2022-10-19T16:40:10.680Z,98576.19
2022-10-19T16:42:39.214Z,98562.31
2022-10-19T16:45:06.723Z,98590.19
2022-10-19T16:47:33.797Z,98591.97
2022-10-19T16:50:02.682Z,98596.31
2022-10-19T16:52:34.451Z,98591.97
2022-10-19T16:55:01.984Z,98563.25
2022-10-19T16:57:30.604Z,98574.56
2022-10-19T16:59:57.736Z,98588.56
2022-10-19T17:02:25.101Z,98606.84
2022-10-19T17:04:52.383Z,98586.78
2022-10-19T17:07:19.676Z,98596.41
2022-10-19T17:09:55.069Z,98595.56
2022-10-19T17:12:22.425Z,98594.69
2022-10-19T17:14:51.445Z,98592.06
2022-10-19T17:17:18.716Z,98600.81
2022-10-19T17:19:45.852Z,98607.81
2022-10-19T17:22:12.837Z,98589.44
2022-10-19T17:24:40.105Z,98580.78
2022-10-19T17:27:07.213Z,98592.06
2022-10-19T17:29:34.857Z,98609.53
2022-10-19T17:32:02.005Z,98574.72
2022-10-19T17:34:29.342Z,98566.00
2022-10-19T17:36:56.912Z,98608.69
2022-10-19T17:39:28.956Z,98593.91
2022-10-19T17:42:02.311Z,98592.16
2022-10-19T17:44:31.463Z,98622.66
2022-10-19T17:47:00.394Z,98595.63
2022-10-19T17:49:28.775Z,98621.78
2022-10-19T17:51:59.806Z,98623.50
2022-10-19T17:54:27.170Z,98626.09
2022-10-19T17:56:54.263Z,98625.25
2022-10-19T17:59:30.188Z,98613.06
2022-10-19T18:02:03.548Z,98614.84
2022-10-19T18:04:32.516Z,98634.00
2022-10-19T18:06:59.502Z,98602.63
2022-10-19T18:09:26.659Z,98629.63
2022-10-19T18:11:54.643Z,98639.25
2022-10-19T18:14:21.750Z,98645.34
2022-10-19T18:16:52.206Z,98638.38
2022-10-19T18:19:19.272Z,98645.34
2022-10-19T18:21:47.689Z,98633.16
2022-10-19T18:24:21.956Z,98637.50
2022-10-19T18:26:50.873Z,98647.97
2022-10-19T18:29:21.022Z,98649.75
2022-10-19T18:31:53.438Z,98647.97
2022-10-19T18:34:27.824Z,98639.25
2022-10-19T18:36:55.065Z,98618.34
2022-10-19T18:39:22.972Z,98646.25
2022-10-19T18:41:53.886Z,98653.22
2022-10-19T18:44:25.519Z,98649.72
2022-10-19T18:46:58.353Z,98632.28
2022-10-19T18:49:26.700Z,98653.22
2022-10-19T18:51:55.988Z,98657.56
2022-10-19T18:54:24.663Z,98646.22
2022-10-19T18:56:52.028Z,98628.78
2022-10-19T18:59:19.337Z,98645.34
2022-10-19T19:01:46.505Z,98651.47
2022-10-19T19:04:14.506Z,98645.34
2022-10-19T19:06:42.303Z,98620.97
2022-10-19T19:09:11.267Z,98646.22
2022-10-19T19:11:42.078Z,98654.94
2022-10-19T19:14:16.040Z,98619.19
2022-10-19T19:16:45.021Z,98656.69
2022-10-19T19:19:15.440Z,98657.56
2022-10-19T19:22:08.576Z,98656.69
2022-10-19T19:24:38.606Z,98642.75
2022-10-19T19:27:09.818Z,98660.19
2022-10-19T19:29:38.355Z,98642.75
2022-10-19T19:32:05.792Z,98661.94
2022-10-19T19:34:35.773Z,98665.41
2022-10-19T19:37:04.219Z,98662.78
2022-10-19T19:39:34.535Z,98653.19
2022-10-19T19:42:01.660Z,98656.69
2022-10-19T19:44:29.939Z,98625.31
2022-10-19T19:47:17.943Z,98661.91
2022-10-19T19:49:47.865Z,98664.56
2022-10-19T19:52:15.683Z,98641.91
2022-10-19T19:54:43.187Z,98677.63
2022-10-19T19:57:10.177Z,98682.84
2022-10-19T19:59:37.410Z,98683.72
2022-10-19T20:02:06.381Z,98645.34
2022-10-19T20:04:33.431Z,98661.06
2022-10-19T20:07:00.440Z,98676.75
2022-10-19T20:09:27.588Z,98689.81
2022-10-19T20:11:54.530Z,98703.78
2022-10-19T20:14:21.452Z,98688.97
2022-10-19T20:16:48.400Z,98702.91
2022-10-19T20:19:15.475Z,98688.97
2022-10-19T20:21:42.902Z,98715.97
2022-10-19T20:24:10.837Z,98717.75
2022-10-19T20:26:38.351Z,98703.78
2022-10-19T20:29:05.415Z,98722.97
2022-10-19T20:31:39.107Z,98727.34
2022-10-19T20:34:12.897Z,98742.16
2022-10-19T20:36:40.365Z,98706.41
2022-10-19T20:39:07.811Z,98721.22
2022-10-19T20:41:35.307Z,98728.22
2022-10-19T20:44:02.414Z,98730.81
2022-10-19T20:46:30.599Z,98736.94
2022-10-19T20:48:59.922Z,98735.19
2022-10-19T20:51:32.508Z,98736.91
2022-10-19T20:54:08.437Z,98733.44
2022-10-19T20:56:39.038Z,98686.31
2022-10-19T20:59:12.396Z,98744.75
2022-10-19T21:01:43.473Z,98744.75
2022-10-19T21:04:14.789Z,98752.63
2022-10-19T21:06:53.201Z,98736.91
2022-10-19T21:09:26.176Z,98749.09
2022-10-19T21:12:12.643Z,98745.63
2022-10-19T21:17:43.205Z,98740.38
2022-10-19T21:20:12.818Z,98726.38
2022-10-19T21:22:58.866Z,98737.75
2022-10-19T21:31:27.142Z,98729.91
2022-10-19T21:33:54.688Z,98743.00
2022-10-19T21:36:40.716Z,98749.06
2022-10-19T21:39:07.892Z,98757.81
2022-10-19T21:44:38.097Z,98749.06
2022-10-19T21:49:51.139Z,98757.81
2022-10-19T21:52:55.809Z,98751.69
2022-10-19T21:59:09.094Z,98764.78
2022-10-19T22:06:07.656Z,98782.22
2022-10-19T22:18:07.782Z,98775.25
2022-10-19T22:29:51.739Z,98766.47
2022-10-19T22:46:20.989Z,98807.47
2022-10-19T22:49:07.100Z,98779.50
2022-10-19T22:51:34.301Z,98806.59
2022-10-19T22:54:01.522Z,98806.59
2022-10-19T23:01:57.662Z,98812.66
2022-10-19T23:05:02.253Z,98813.53
2022-10-19T23:07:29.920Z,98818.75
2022-10-19T23:12:41.586Z,98789.03
2022-10-19T23:15:09.967Z,98815.22
2022-10-19T23:17:37.926Z,98819.63
2022-10-19T23:29:35.073Z,98829.16
2022-10-19T23:32:21.317Z,98810.81
2022-10-19T23:38:10.679Z,98834.38
2022-10-19T23:40:37.590Z,98836.13
2022-10-19T23:43:04.631Z,98844.88
2022-10-19T23:51:21.135Z,98837.03
2022-10-19T23:56:50.857Z,98831.72
2022-10-19T23:59:37.266Z,98855.31
